createdAt,value
2023-02-23T00:01:38.093Z,96036.53
2023-02-23T00:04:26.953Z,96039.59
2023-02-23T00:07:19.792Z,96041.69
2023-02-23T00:10:11.787Z,96042.44
2023-02-23T00:13:01.099Z,96036.66
2023-02-23T00:15:51.695Z,96038.31
2023-02-23T00:18:48.315Z,96034.03
2023-02-23T00:21:38.050Z,96041.44
2023-02-23T00:24:28.453Z,96040.59
2023-02-23T00:27:21.313Z,96034.50
2023-02-23T00:30:11.689Z,96041.44
2023-02-23T00:33:00.321Z,96043.28
2023-02-23T00:35:51.091Z,96047.16
2023-02-23T00:38:41.231Z,96047.66
2023-02-23T00:41:30.743Z,96041.31
2023-02-23T00:44:21.359Z,96044.13
2023-02-23T00:47:10.303Z,96046.09
2023-02-23T00:49:59.341Z,96051.16
2023-02-23T00:52:49.557Z,96059.06
2023-02-23T00:55:42.646Z,96052.28
2023-02-23T00:58:32.498Z,96055.81
2023-02-23T01:01:22.388Z,96048.28
2023-02-23T01:04:13.915Z,96050.88
2023-02-23T01:07:06.704Z,96050.97
2023-02-23T01:09:57.038Z,96047.00
2023-02-23T01:12:48.666Z,96040.88
2023-02-23T01:15:43.435Z,96035.28
2023-02-23T01:18:32.878Z,96047.59
2023-02-23T01:21:26.734Z,96041.84
2023-02-23T01:24:15.368Z,96040.28
2023-02-23T01:27:05.693Z,96034.44
2023-02-23T01:29:55.785Z,96035.16
2023-02-23T01:32:44.884Z,96030.09
2023-02-23T01:35:34.500Z,96015.66
2023-02-23T01:38:23.735Z,96036.22
2023-02-23T01:41:12.358Z,96032.47
2023-02-23T01:44:05.900Z,96030.22
2023-02-23T01:46:58.316Z,96038.91
2023-02-23T01:49:48.375Z,96041.09
2023-02-23T01:52:39.824Z,96036.41
2023-02-23T01:55:30.402Z,96040.63
2023-02-23T01:58:23.186Z,96035.72
2023-02-23T02:01:14.679Z,96036.63
2023-02-23T02:04:06.617Z,96033.94
2023-02-23T02:06:58.178Z,96032.28
2023-02-23T02:10:08.879Z,96031.59
2023-02-23T02:12:59.079Z,96028.22
2023-02-23T02:16:29.316Z,96022.44
2023-02-23T02:19:44.525Z,96032.63
2023-02-23T02:22:51.143Z,96030.88
2023-02-23T02:25:51.748Z,96025.59
2023-02-23T02:29:14.020Z,96032.63
2023-02-23T02:32:48.984Z,96026.44
2023-02-23T02:36:09.745Z,96024.06
2023-02-23T02:39:10.516Z,96037.28
2023-02-23T02:42:10.452Z,96029.53
2023-02-23T02:45:04.527Z,96023.56
2023-02-23T02:48:02.331Z,96036.47
2023-02-23T02:50:56.568Z,96033.78
2023-02-23T02:53:53.168Z,96038.56
2023-02-23T02:56:46.844Z,96035.03
2023-02-23T03:00:02.124Z,96034.16
2023-02-23T03:03:09.401Z,96037.19
2023-02-23T03:06:15.648Z,96041.97
2023-02-23T03:09:30.923Z,96032.50
2023-02-23T03:12:48.686Z,96039.78
2023-02-23T03:16:05.714Z,96046.22
2023-02-23T03:19:29.069Z,96051.47
2023-02-23T03:22:40.102Z,96052.84
2023-02-23T03:25:51.449Z,96053.41
2023-02-23T03:29:09.359Z,96053.31
2023-02-23T03:32:26.509Z,96051.19
2023-02-23T03:35:43.224Z,96058.22
2023-02-23T03:38:55.317Z,96062.31
2023-02-23T03:42:04.754Z,96060.84
2023-02-23T03:45:14.272Z,96058.88
2023-02-23T03:48:24.154Z,96064.16
2023-02-23T03:51:33.763Z,96054.22
2023-02-23T03:54:46.727Z,96052.56
2023-02-23T03:57:54.988Z,96062.56
2023-02-23T04:01:06.412Z,96050.81
2023-02-23T04:04:17.018Z,96037.09
2023-02-23T04:07:26.994Z,96059.63
2023-02-23T04:10:35.498Z,96052.38
2023-02-23T04:13:27.073Z,96054.38
2023-02-23T04:16:17.833Z,96067.59
2023-02-23T04:19:07.696Z,96053.56
2023-02-23T04:21:56.360Z,96060.69
2023-02-23T04:24:47.408Z,96043.06
2023-02-23T04:27:37.564Z,96052.38
2023-02-23T04:30:28.390Z,96062.22
2023-02-23T04:33:18.864Z,96061.53
2023-02-23T04:36:08.458Z,96051.34
2023-02-23T04:38:58.397Z,96058.97
2023-02-23T04:41:48.938Z,96059.56
2023-02-23T04:44:38.377Z,96054.03
2023-02-23T04:47:27.469Z,96059.84
2023-02-23T04:50:18.522Z,96067.78
2023-02-23T04:53:08.355Z,96064.81
2023-02-23T04:55:57.460Z,96069.34
2023-02-23T04:58:46.064Z,96071.38
2023-02-23T05:01:37.613Z,96071.06
2023-02-23T05:04:26.317Z,96072.47
2023-02-23T05:07:17.166Z,96072.47
2023-02-23T05:10:07.091Z,96074.94
2023-02-23T05:12:56.802Z,96067.78
2023-02-23T05:15:45.578Z,96072.09
2023-02-23T05:18:35.675Z,96069.25
2023-02-23T05:21:25.382Z,96077.72
2023-02-23T05:24:16.628Z,96070.47
2023-02-23T05:27:05.240Z,96070.22
2023-02-23T05:29:55.567Z,96058.88
2023-02-23T05:32:45.190Z,96069.56
2023-02-23T05:35:33.820Z,96071.44
2023-02-23T05:38:24.003Z,96084.09
2023-02-23T05:41:15.651Z,96079.94
2023-02-23T05:44:04.319Z,96079.69
2023-02-23T05:46:53.334Z,96085.16
2023-02-23T05:49:43.577Z,96085.84
2023-02-23T05:52:32.911Z,96083.13
2023-02-23T05:55:21.505Z,96088.91
2023-02-23T05:58:12.942Z,96078.13
2023-02-23T06:01:02.415Z,96078.47
2023-02-23T06:03:51.829Z,96087.53
2023-02-23T06:06:41.582Z,96080.44
2023-02-23T06:09:30.224Z,96088.03
2023-02-23T06:12:19.681Z,96085.09
2023-02-23T06:15:10.670Z,96092.75
2023-02-23T06:18:00.975Z,96089.81
2023-02-23T06:20:50.716Z,96089.09
2023-02-23T06:23:39.705Z,96092.56
2023-02-23T06:26:28.534Z,96077.44
2023-02-23T06:29:18.068Z,96098.47
2023-02-23T06:32:09.082Z,96095.38
2023-02-23T06:34:58.431Z,96108.19
2023-02-23T06:37:47.139Z,96104.09
2023-02-23T06:40:38.618Z,96120.13
2023-02-23T06:43:27.257Z,96114.53
2023-02-23T06:46:16.998Z,96122.22
2023-02-23T06:49:07.142Z,96117.44
2023-02-23T06:51:57.350Z,96122.53
2023-02-23T06:54:46.541Z,96115.63
2023-02-23T06:57:36.380Z,96117.06
2023-02-23T07:00:25.319Z,96121.75
2023-02-23T07:03:14.457Z,96125.03
2023-02-23T07:06:06.802Z,96126.91
2023-02-23T07:08:58.518Z,96131.94
2023-02-23T07:11:48.134Z,96128.19
2023-02-23T07:14:39.012Z,96132.44
2023-02-23T07:17:28.619Z,96134.38
2023-02-23T07:20:17.325Z,96133.78
2023-02-23T07:23:08.494Z,96129.72
2023-02-23T07:25:58.461Z,96129.47
2023-02-23T07:28:47.118Z,96144.97
2023-02-23T07:31:36.192Z,96144.38
2023-02-23T07:34:25.267Z,96145.22
2023-02-23T07:37:13.918Z,96135.34
2023-02-23T07:40:05.238Z,96152.00
2023-02-23T07:42:55.393Z,96136.88
2023-02-23T07:45:46.499Z,96151.84
2023-02-23T07:48:35.446Z,96148.00
2023-02-23T07:51:24.580Z,96151.31
2023-02-23T07:54:13.554Z,96148.97
2023-02-23T07:57:04.463Z,96148.72
2023-02-23T07:59:53.362Z,96152.72
2023-02-23T08:02:43.007Z,96145.69
2023-02-23T08:05:31.674Z,96146.25
2023-02-23T08:08:21.715Z,96155.16
2023-02-23T08:11:10.382Z,96153.75
2023-02-23T08:14:01.557Z,96151.50
2023-02-23T08:16:51.617Z,96160.03
2023-02-23T08:19:41.576Z,96159.34
2023-02-23T08:22:37.841Z,96159.66
2023-02-23T08:25:33.577Z,96158.72
2023-02-23T08:28:22.555Z,96151.53
2023-02-23T08:31:13.745Z,96121.38
2023-02-23T08:34:03.587Z,96160.78
2023-02-23T08:36:52.977Z,96163.97
2023-02-23T08:39:44.141Z,96159.97
2023-02-23T08:42:33.304Z,96157.25
2023-02-23T08:45:22.924Z,96159.00
2023-02-23T08:48:13.483Z,96161.22
2023-02-23T08:51:03.054Z,96159.34
2023-02-23T08:53:51.855Z,96162.97
2023-02-23T08:56:40.970Z,96151.19
2023-02-23T08:59:30.016Z,96163.75
2023-02-23T09:02:18.859Z,96154.91
2023-02-23T09:05:13.442Z,96158.19
2023-02-23T09:08:03.369Z,96153.34
2023-02-23T09:10:52.006Z,96162.03
2023-02-23T09:13:41.035Z,96157.44
2023-02-23T09:16:29.662Z,96135.63
2023-02-23T09:19:18.818Z,96163.19
2023-02-23T09:22:09.207Z,96158.66
2023-02-23T09:24:57.827Z,96167.38
2023-02-23T09:27:48.203Z,96168.13
2023-02-23T09:30:37.032Z,96163.78
2023-02-23T09:33:26.930Z,96170.75
2023-02-23T09:36:17.666Z,96164.69
2023-02-23T09:39:09.307Z,96176.09
2023-02-23T09:42:09.720Z,96180.66
2023-02-23T09:45:13.742Z,96178.03
2023-02-23T09:48:11.309Z,96174.59
2023-02-23T09:51:02.328Z,96184.91
2023-02-23T09:53:55.059Z,96184.63
2023-02-23T09:56:48.101Z,96177.31
2023-02-23T09:59:37.425Z,96181.44
2023-02-23T10:02:34.472Z,96183.66
2023-02-23T10:05:25.352Z,96190.25
2023-02-23T10:08:25.737Z,96187.72
2023-02-23T10:11:25.492Z,96188.72
2023-02-23T10:14:27.511Z,96185.47
2023-02-23T10:17:26.998Z,96188.06
2023-02-23T10:20:24.839Z,96189.47
2023-02-23T10:23:18.397Z,96177.16
2023-02-23T10:26:13.568Z,96182.09
2023-02-23T10:29:02.743Z,96189.88
2023-02-23T10:31:58.311Z,96186.34
2023-02-23T10:34:49.436Z,96191.56
2023-02-23T10:37:40.012Z,96191.56
2023-02-23T10:40:33.397Z,96184.72
2023-02-23T10:43:22.420Z,96183.66
2023-02-23T10:46:21.231Z,96183.81
2023-02-23T10:49:19.009Z,96188.25
2023-02-23T10:52:13.962Z,96188.00
2023-02-23T10:55:06.674Z,96189.88
2023-02-23T10:58:04.997Z,96191.84
2023-02-23T11:00:56.030Z,96183.47
2023-02-23T11:03:57.524Z,96179.94
2023-02-23T11:06:53.034Z,96188.63
2023-02-23T11:09:47.144Z,96187.63
2023-02-23T11:12:42.120Z,96170.69
2023-02-23T11:15:49.085Z,96172.34
2023-02-23T11:18:43.136Z,96178.44
2023-02-23T11:21:34.412Z,96168.19
2023-02-23T11:24:31.108Z,96162.41
2023-02-23T11:27:24.763Z,96160.53
2023-02-23T11:30:14.983Z,96162.75
2023-02-23T11:33:11.113Z,96162.50
2023-02-23T11:36:02.049Z,96145.69
2023-02-23T11:39:03.718Z,96132.66
2023-02-23T11:42:16.460Z,96143.94
2023-02-23T11:45:08.204Z,96139.06
2023-02-23T11:48:00.609Z,96147.00
2023-02-23T11:50:50.900Z,96141.88
2023-02-23T11:53:42.203Z,96124.47
2023-02-23T11:56:33.328Z,96130.25
2023-02-23T11:59:31.382Z,96129.72
2023-02-23T12:02:24.922Z,96135.75
2023-02-23T12:05:22.033Z,96124.34
2023-02-23T12:08:18.166Z,96130.13
2023-02-23T12:11:13.927Z,96127.13
2023-02-23T12:14:08.852Z,96124.94
2023-02-23T12:17:05.392Z,96126.59
2023-02-23T12:20:01.821Z,96116.50
2023-02-23T12:22:54.376Z,96133.59
2023-02-23T12:25:51.061Z,96130.38
2023-02-23T12:28:44.866Z,96127.97
2023-02-23T12:31:42.934Z,96125.25
2023-02-23T12:34:41.118Z,96127.13
2023-02-23T12:37:38.815Z,96122.84
2023-02-23T12:40:29.634Z,96124.22
2023-02-23T12:43:26.819Z,96120.97
2023-02-23T12:46:21.347Z,96117.19
2023-02-23T12:49:19.645Z,96107.41
2023-02-23T12:52:15.394Z,96103.97
2023-02-23T12:55:04.337Z,96111.03
2023-02-23T12:57:59.672Z,96106.97
2023-02-23T13:00:58.194Z,96106.22
2023-02-23T13:04:05.637Z,96105.41
2023-02-23T13:06:59.827Z,96099.16
2023-02-23T13:10:03.012Z,96095.34
2023-02-23T13:13:04.859Z,96091.84
2023-02-23T13:16:01.259Z,96098.09
2023-02-23T13:18:54.992Z,96095.13
2023-02-23T13:21:50.097Z,96098.94
2023-02-23T13:24:44.808Z,96093.00
2023-02-23T13:27:39.014Z,96091.41
2023-02-23T13:30:33.383Z,96081.16
2023-02-23T13:33:41.940Z,96078.22
2023-02-23T13:36:36.004Z,96080.16
2023-02-23T13:39:47.626Z,96081.53
2023-02-23T13:42:48.985Z,96081.25
2023-02-23T13:45:49.744Z,96078.81
2023-02-23T13:48:56.739Z,96076.75
2023-02-23T13:51:52.191Z,96080.34
2023-02-23T13:54:56.727Z,96077.47
2023-02-23T13:57:47.150Z,96053.00
2023-02-23T14:00:36.331Z,96076.75
2023-02-23T14:03:31.540Z,96065.63
2023-02-23T14:06:24.274Z,96086.06
2023-02-23T14:09:20.583Z,96085.50
2023-02-23T14:12:19.857Z,96068.66
2023-02-23T14:15:42.965Z,96078.19
2023-02-23T14:18:34.178Z,96072.16
2023-02-23T14:21:35.041Z,96079.50
2023-02-23T14:24:25.165Z,96074.03
2023-02-23T14:27:39.857Z,96072.69
2023-02-23T14:30:44.303Z,96074.84
2023-02-23T14:33:50.239Z,96075.94
2023-02-23T14:36:45.099Z,96057.72
2023-02-23T14:39:35.663Z,96063.72
2023-02-23T14:42:28.128Z,96044.91
2023-02-23T14:45:20.692Z,96061.81
2023-02-23T14:48:16.288Z,96068.88
2023-02-23T14:51:18.170Z,96061.25
2023-02-23T14:54:16.049Z,96060.97
2023-02-23T14:57:08.203Z,96064.75
2023-02-23T15:00:01.537Z,96059.31
2023-02-23T15:02:59.289Z,96064.44
2023-02-23T15:05:54.959Z,96063.38
2023-02-23T15:08:46.432Z,96060.09
2023-02-23T15:11:37.567Z,96058.16
2023-02-23T15:14:28.248Z,96061.91
2023-02-23T15:17:22.207Z,96054.56
2023-02-23T15:20:17.218Z,96054.56
2023-02-23T15:23:08.654Z,96054.00
2023-02-23T15:25:57.970Z,96051.28
2023-02-23T15:28:48.381Z,96056.19
2023-02-23T15:31:40.693Z,96051.53
2023-02-23T15:34:32.026Z,96050.69
2023-02-23T15:37:30.009Z,96055.31
2023-02-23T15:40:24.325Z,96051.22
2023-02-23T15:43:13.266Z,96057.19
2023-02-23T15:46:06.141Z,96053.09
2023-02-23T15:48:59.462Z,96046.47
2023-02-23T15:51:52.643Z,96045.13
2023-02-23T15:54:49.398Z,96050.50
2023-02-23T15:57:48.540Z,96054.22
2023-02-23T16:00:40.024Z,96053.66
2023-02-23T16:03:33.142Z,96048.16
2023-02-23T16:06:25.555Z,96046.19
2023-02-23T16:09:21.696Z,96048.66
2023-02-23T16:12:15.062Z,96044.56
2023-02-23T16:15:08.459Z,96046.97
2023-02-23T16:17:58.825Z,96047.53
2023-02-23T16:20:56.889Z,96026.22
2023-02-23T16:23:49.348Z,96052.09
2023-02-23T16:26:46.466Z,96042.59
2023-02-23T16:29:42.753Z,96045.00
2023-02-23T16:32:38.269Z,96037.63
2023-02-23T16:35:37.143Z,96041.69
2023-02-23T16:38:27.359Z,96044.94
2023-02-23T16:41:21.841Z,96044.94
2023-02-23T16:44:18.815Z,96048.44
2023-02-23T16:47:36.303Z,96049.19
2023-02-23T16:50:28.957Z,96062.50
2023-02-23T16:53:18.531Z,96065.16
2023-02-23T16:56:12.415Z,96055.09
2023-02-23T16:59:04.418Z,96058.88
2023-02-23T17:01:53.131Z,96052.59
2023-02-23T17:04:46.732Z,96056.34
2023-02-23T17:07:37.314Z,96058.50
2023-02-23T17:10:28.329Z,96064.44
2023-02-23T17:13:19.942Z,96048.69
2023-02-23T17:16:12.171Z,96062.53
2023-02-23T17:19:01.943Z,96061.06
2023-02-23T17:21:51.272Z,96059.44
2023-02-23T17:24:43.087Z,96066.50
2023-02-23T17:27:31.796Z,96073.28
2023-02-23T17:30:21.814Z,96069.19
2023-02-23T17:33:11.411Z,96072.97
2023-02-23T17:36:00.396Z,96064.72
2023-02-23T17:38:49.827Z,96067.97
2023-02-23T17:41:39.776Z,96063.31
2023-02-23T17:44:29.333Z,96066.00
2023-02-23T17:47:17.966Z,96065.72
2023-02-23T17:50:09.487Z,96077.66
2023-02-23T17:52:58.569Z,96075.75
2023-02-23T17:55:48.277Z,96073.53
2023-02-23T17:58:39.393Z,96075.38
2023-02-23T18:01:28.903Z,96072.91
2023-02-23T18:04:17.809Z,96060.59
2023-02-23T18:07:06.476Z,96071.72
2023-02-23T18:09:56.170Z,96065.97
2023-02-23T18:12:45.656Z,96061.88
2023-02-23T18:15:35.795Z,96067.56
2023-02-23T18:18:25.578Z,96069.13
2023-02-23T18:21:16.429Z,96063.16
2023-02-23T18:24:06.506Z,96061.81
2023-02-23T18:27:01.663Z,96042.66
2023-02-23T18:29:50.695Z,96070.47
2023-02-23T18:32:40.721Z,96062.00
2023-02-23T18:35:34.164Z,96074.53
2023-02-23T18:38:22.786Z,96072.84
2023-02-23T18:41:11.902Z,96065.75
2023-02-23T18:44:02.249Z,96068.78
2023-02-23T18:46:51.479Z,96069.03
2023-02-23T18:49:41.669Z,96063.53
2023-02-23T18:52:31.280Z,96071.13
2023-02-23T18:55:22.176Z,96067.59
2023-02-23T18:58:10.875Z,96064.53
2023-02-23T19:01:00.569Z,96067.50
2023-02-23T19:03:50.644Z,96074.28
2023-02-23T19:06:44.767Z,96062.03
2023-02-23T19:09:34.317Z,96070.41
2023-02-23T19:12:23.233Z,96069.03
2023-02-23T19:15:13.708Z,96057.56
2023-02-23T19:18:02.511Z,96066.50
2023-02-23T19:20:55.087Z,96061.59
2023-02-23T19:23:46.735Z,96058.00
2023-02-23T19:26:38.051Z,96060.34
2023-02-23T19:29:27.664Z,96062.16
2023-02-23T19:32:17.935Z,96049.97
2023-02-23T19:35:11.033Z,96052.69
2023-02-23T19:38:01.875Z,96044.81
2023-02-23T19:40:53.041Z,96027.56
2023-02-23T19:43:42.008Z,96050.75
2023-02-23T19:46:31.418Z,96055.91
2023-02-23T19:49:20.474Z,96051.25
2023-02-23T19:52:09.125Z,96056.91
2023-02-23T19:54:58.609Z,96058.25
2023-02-23T19:57:48.724Z,96049.22
2023-02-23T20:00:37.449Z,96047.50
2023-02-23T20:03:28.277Z,96049.00
2023-02-23T20:06:19.998Z,96054.16
2023-02-23T20:09:09.483Z,96054.91
2023-02-23T20:11:58.557Z,96057.31
2023-02-23T20:14:49.984Z,96059.09
2023-02-23T20:17:40.210Z,96056.66
2023-02-23T20:20:30.496Z,96065.19
2023-02-23T20:23:19.100Z,96061.31
2023-02-23T20:26:09.161Z,96065.63
2023-02-23T20:28:58.968Z,96064.34
2023-02-23T20:31:51.397Z,96058.53
2023-02-23T20:34:40.849Z,96055.03
2023-02-23T20:37:29.446Z,96061.13
2023-02-23T20:40:20.375Z,96053.97
2023-02-23T20:43:09.016Z,96057.44
2023-02-23T20:46:01.311Z,96056.06
2023-02-23T20:48:51.907Z,96053.81
2023-02-23T20:51:42.442Z,96057.59
2023-02-23T20:54:32.655Z,96049.63
2023-02-23T20:57:21.321Z,96057.34
2023-02-23T21:00:12.726Z,96060.19
2023-02-23T21:03:03.348Z,96059.25
2023-02-23T21:05:55.280Z,96060.00
2023-02-23T21:08:46.208Z,96053.44
2023-02-23T21:11:35.953Z,96050.97
2023-02-23T21:14:24.709Z,96040.63
2023-02-23T21:17:14.194Z,96057.09
2023-02-23T21:20:04.668Z,96041.03
2023-02-23T21:22:56.073Z,96045.19
2023-02-23T21:25:44.724Z,96049.19
2023-02-23T21:28:34.029Z,96045.06
2023-02-23T21:31:23.292Z,96048.72
2023-02-23T21:34:15.965Z,96044.63
2023-02-23T21:37:04.576Z,96044.44
2023-02-23T21:39:55.632Z,96035.16
2023-02-23T21:42:44.759Z,96042.94
2023-02-23T21:45:33.923Z,96043.41
2023-02-23T21:48:23.487Z,96018.41
2023-02-23T21:51:16.619Z,96038.22
2023-02-23T21:54:06.426Z,96037.72
2023-02-23T21:56:56.877Z,96033.16
2023-02-23T21:59:45.517Z,96031.16
2023-02-23T22:02:38.790Z,96040.06
2023-02-23T22:05:27.842Z,96036.94
2023-02-23T22:08:17.015Z,96033.09
2023-02-23T22:11:09.788Z,96030.38
2023-02-23T22:14:00.816Z,96026.38
2023-02-23T22:16:49.830Z,96035.53
2023-02-23T22:19:38.474Z,96024.38
2023-02-23T22:22:27.742Z,96020.41
2023-02-23T22:25:17.661Z,96014.44
2023-02-23T22:28:09.586Z,96004.34
2023-02-23T22:31:05.648Z,96004.22
2023-02-23T22:33:54.749Z,96011.03
2023-02-23T22:36:45.189Z,96007.16
2023-02-23T22:39:34.843Z,95998.50
2023-02-23T22:42:25.491Z,96003.66
2023-02-23T22:45:15.389Z,96001.53
2023-02-23T22:48:07.791Z,95998.13
2023-02-23T22:50:58.913Z,95988.06
2023-02-23T22:53:47.521Z,95993.47
2023-02-23T22:56:37.835Z,95995.56
2023-02-23T22:59:28.922Z,95992.06
2023-02-23T23:02:20.542Z,95988.28
2023-02-23T23:05:13.746Z,95994.28
2023-02-23T23:08:02.365Z,95991.47
2023-02-23T23:10:51.812Z,95984.69
2023-02-23T23:13:44.481Z,95989.84
2023-02-23T23:16:36.979Z,95992.41
2023-02-23T23:19:25.671Z,95992.44
2023-02-23T23:22:17.799Z,95987.53
2023-02-23T23:25:15.067Z,95990.78
2023-02-23T23:28:04.771Z,95991.63
2023-02-23T23:30:56.533Z,95991.97
2023-02-23T23:33:48.579Z,95980.00
2023-02-23T23:36:42.868Z,95983.06
2023-02-23T23:39:33.012Z,95975.09
2023-02-23T23:42:22.622Z,95969.44
2023-02-23T23:45:13.499Z,95962.88
2023-02-23T23:48:09.975Z,95967.94
2023-02-23T23:51:05.093Z,95958.09
2023-02-23T23:53:55.939Z,95956.44
2023-02-23T23:56:46.480Z,95953.50
2023-02-23T23:59:41.504Z,95954.81
